createdAt,value
2018-08-19T00:01:10.550Z,11.20
2018-08-19T00:03:37.910Z,9.90
2018-08-19T00:06:04.897Z,10.90
2018-08-19T00:08:31.846Z,10.37
2018-08-19T00:11:03.844Z,11.33
2018-08-19T00:13:30.820Z,10.17
2018-08-19T00:15:57.859Z,9.70
2018-08-19T00:18:25.246Z,11.30
2018-08-19T00:20:52.286Z,10.20
2018-08-19T00:23:19.266Z,9.97
2018-08-19T00:25:46.262Z,9.70
2018-08-19T00:28:14.447Z,10.10
2018-08-19T00:30:41.453Z,10.27
2018-08-19T00:33:08.851Z,11.10
2018-08-19T00:35:35.908Z,12.20
2018-08-19T00:38:02.923Z,12.10
2018-08-19T00:40:29.974Z,10.90
2018-08-19T00:43:16.863Z,10.67
2018-08-19T00:45:43.915Z,10.97
2018-08-19T00:48:11.418Z,10.87
2018-08-19T00:50:38.956Z,12.97
2018-08-19T00:53:07.238Z,12.70
2018-08-19T00:55:40.122Z,11.90
2018-08-19T00:58:20.207Z,11.97
2018-08-19T01:00:47.311Z,10.90
2018-08-19T01:03:14.249Z,12.00
2018-08-19T01:05:41.292Z,11.50
2018-08-19T01:08:09.326Z,10.40
2018-08-19T01:10:36.311Z,11.50
2018-08-19T01:13:03.309Z,10.40
2018-08-19T01:15:30.287Z,10.93
2018-08-19T01:17:57.253Z,10.47
2018-08-19T01:20:24.336Z,11.50
2018-08-19T01:22:51.273Z,11.53
2018-08-19T01:25:18.238Z,11.27
2018-08-19T01:27:45.757Z,10.37
2018-08-19T01:30:16.531Z,11.37
2018-08-19T01:32:43.539Z,10.97
2018-08-19T01:35:10.562Z,11.07
2018-08-19T01:37:38.362Z,11.07
2018-08-19T01:40:07.613Z,11.47
2018-08-19T01:42:34.616Z,11.23
2018-08-19T01:45:01.837Z,10.83
2018-08-19T01:47:28.846Z,11.70
2018-08-19T01:49:56.112Z,10.63
2018-08-19T01:52:23.158Z,10.80
2018-08-19T01:54:50.464Z,10.50
2018-08-19T01:57:17.629Z,11.20
2018-08-19T01:59:44.806Z,11.30
2018-08-19T02:02:11.837Z,10.60
2018-08-19T02:04:45.482Z,11.07
2018-08-19T02:07:14.119Z,15.47
2018-08-19T02:10:03.810Z,15.00
2018-08-19T02:12:37.056Z,10.87
2018-08-19T02:15:04.086Z,11.50
2018-08-19T02:17:31.280Z,11.37
2018-08-19T02:19:58.221Z,9.93
2018-08-19T02:22:25.175Z,11.20
2018-08-19T02:24:52.340Z,9.97
2018-08-19T02:27:19.434Z,10.77
2018-08-19T02:29:46.455Z,10.63
2018-08-19T02:32:13.463Z,9.83
2018-08-19T02:34:42.979Z,9.50
2018-08-19T02:37:14.166Z,9.60
2018-08-19T02:39:43.133Z,9.50
2018-08-19T02:42:22.372Z,9.27
2018-08-19T02:44:50.297Z,9.30
2018-08-19T02:47:17.549Z,9.60
2018-08-19T02:49:44.501Z,9.13
2018-08-19T02:52:16.215Z,9.10
2018-08-19T02:54:43.278Z,9.70
2018-08-19T02:57:10.349Z,9.40
2018-08-19T02:59:37.334Z,8.40
2018-08-19T03:02:07.658Z,8.60
2018-08-19T03:04:34.618Z,7.97
2018-08-19T03:07:01.633Z,8.13
2018-08-19T03:09:28.593Z,8.00
2018-08-19T03:12:06.528Z,8.50
2018-08-19T03:14:34.358Z,8.27
2018-08-19T03:17:01.371Z,7.53
2018-08-19T03:19:28.344Z,7.93
2018-08-19T03:21:59.790Z,7.30
2018-08-19T03:24:27.047Z,7.50
2018-08-19T03:26:54.478Z,6.70
2018-08-19T03:29:21.507Z,7.23
2018-08-19T03:31:53.236Z,7.10
2018-08-19T03:34:20.248Z,7.00
2018-08-19T03:36:47.347Z,7.40
2018-08-19T03:39:15.322Z,8.30
2018-08-19T03:41:42.424Z,7.63
2018-08-19T03:44:09.500Z,7.60
2018-08-19T03:46:36.558Z,8.00
2018-08-19T03:49:03.545Z,7.90
2018-08-19T03:51:30.531Z,7.80
2018-08-19T03:53:57.586Z,7.27
2018-08-19T03:56:25.993Z,7.67
2018-08-19T03:58:56.580Z,7.17
2018-08-19T04:01:36.296Z,7.67
2018-08-19T04:04:03.298Z,7.53
2018-08-19T04:06:30.296Z,7.50
2018-08-19T04:08:57.337Z,7.30
2018-08-19T04:11:24.346Z,6.90
2018-08-19T04:13:51.269Z,7.10
2018-08-19T04:16:18.276Z,7.13
2018-08-19T04:18:45.320Z,7.30
2018-08-19T04:21:16.508Z,6.40
2018-08-19T04:23:46.497Z,7.03
2018-08-19T04:26:13.470Z,6.50
2018-08-19T04:28:41.469Z,6.97
2018-08-19T04:31:14.027Z,6.67
2018-08-19T04:33:42.142Z,6.73
2018-08-19T04:36:10.661Z,6.40
2018-08-19T04:38:37.755Z,6.60
2018-08-19T04:41:04.712Z,5.80
2018-08-19T04:43:31.634Z,6.50
2018-08-19T04:46:01.010Z,6.40
2018-08-19T04:48:28.015Z,6.73
2018-08-19T04:50:56.007Z,6.63
2018-08-19T04:53:22.972Z,6.87
2018-08-19T04:55:50.356Z,6.57
2018-08-19T04:58:17.325Z,7.60
2018-08-19T05:00:44.315Z,7.20
2018-08-19T05:03:11.564Z,7.90
2018-08-19T05:05:38.888Z,7.70
2018-08-19T05:08:06.660Z,6.67
2018-08-19T05:10:33.606Z,7.30
2018-08-19T05:13:00.540Z,8.00
2018-08-19T05:15:27.862Z,6.53
2018-08-19T05:17:54.801Z,7.10
2018-08-19T05:20:21.718Z,7.03
2018-08-19T05:22:49.015Z,7.50
2018-08-19T05:25:16.031Z,6.40
2018-08-19T05:27:45.533Z,6.53
2018-08-19T05:30:12.493Z,5.87
2018-08-19T05:32:41.167Z,7.37
2018-08-19T05:35:08.169Z,6.57
2018-08-19T05:37:35.179Z,5.90
2018-08-19T05:40:02.190Z,8.90
2018-08-19T05:42:29.201Z,7.80
2018-08-19T05:44:56.529Z,6.30
2018-08-19T05:47:23.494Z,6.80
2018-08-19T05:49:50.685Z,6.83
2018-08-19T05:52:18.750Z,6.60
2018-08-19T05:54:51.517Z,7.30
2018-08-19T05:57:18.609Z,13.90
2018-08-19T05:59:47.002Z,10.00
2018-08-19T06:02:14.035Z,6.40
2018-08-19T06:04:41.212Z,6.13
2018-08-19T06:07:08.193Z,10.50
2018-08-19T06:09:35.431Z,7.43
2018-08-19T06:12:03.250Z,6.40
2018-08-19T06:14:30.683Z,5.63
2018-08-19T06:16:58.397Z,6.50
2018-08-19T06:19:25.477Z,6.03
2018-08-19T06:21:52.533Z,6.60
2018-08-19T06:24:20.104Z,5.00
2018-08-19T06:26:47.076Z,9.33
2018-08-19T06:29:14.111Z,5.13
2018-08-19T06:31:41.597Z,6.00
2018-08-19T06:34:08.649Z,4.47
2018-08-19T06:36:35.697Z,4.10
2018-08-19T06:39:03.997Z,4.17
2018-08-19T06:41:31.129Z,5.20
2018-08-19T06:43:58.262Z,3.73
2018-08-19T06:46:25.324Z,4.57
2018-08-19T06:48:52.342Z,4.03
2018-08-19T06:51:19.481Z,4.60
2018-08-19T06:53:46.529Z,3.80
2018-08-19T06:56:13.622Z,2.83
2018-08-19T06:58:40.697Z,3.20
2018-08-19T07:01:07.761Z,3.67
2018-08-19T07:03:35.307Z,3.87
2018-08-19T07:06:05.784Z,2.80
2018-08-19T07:08:32.857Z,3.40
2018-08-19T07:10:59.977Z,2.70
2018-08-19T07:13:27.082Z,2.70
2018-08-19T07:15:54.181Z,2.70
2018-08-19T07:18:21.256Z,2.70
2018-08-19T07:20:48.317Z,2.90
2018-08-19T07:23:15.369Z,2.63
2018-08-19T07:25:43.428Z,2.70
2018-08-19T07:28:11.544Z,2.97
2018-08-19T07:30:39.048Z,2.43
2018-08-19T07:33:06.084Z,3.27
2018-08-19T07:35:33.434Z,2.80
2018-08-19T07:38:00.504Z,8.63
2018-08-19T07:40:32.391Z,11.20
2018-08-19T07:42:59.766Z,5.17
2018-08-19T07:45:26.800Z,3.33
2018-08-19T07:47:53.819Z,5.10
2018-08-19T07:50:20.892Z,3.43
2018-08-19T07:52:48.209Z,3.70
2018-08-19T07:55:15.543Z,6.50
2018-08-19T07:57:43.046Z,4.97
2018-08-19T08:00:10.576Z,2.77
2018-08-19T08:02:37.668Z,3.00
2018-08-19T08:05:05.326Z,3.90
2018-08-19T08:07:32.532Z,3.13
2018-08-19T08:09:59.589Z,3.17
2018-08-19T08:12:26.798Z,2.97
2018-08-19T08:14:54.403Z,2.00
2018-08-19T08:17:22.772Z,2.33
2018-08-19T08:19:57.566Z,2.47
2018-08-19T08:22:25.553Z,2.70
2018-08-19T08:24:52.711Z,2.80
2018-08-19T08:27:19.767Z,3.10
2018-08-19T08:29:46.816Z,3.13
2018-08-19T08:32:13.892Z,4.03
2018-08-19T08:34:40.973Z,3.93
2018-08-19T08:37:08.393Z,2.40
2018-08-19T08:39:36.490Z,3.00
2018-08-19T08:42:03.902Z,3.20
2018-08-19T08:44:31.130Z,5.77
2018-08-19T08:46:59.201Z,6.00
2018-08-19T08:49:26.258Z,10.23
2018-08-19T08:51:53.275Z,2.60
2018-08-19T08:54:20.365Z,3.20
2018-08-19T08:56:47.453Z,4.50
2018-08-19T08:59:14.491Z,2.83
2018-08-19T09:01:41.549Z,2.53
2018-08-19T09:04:08.697Z,2.77
2018-08-19T09:06:35.847Z,3.97
2018-08-19T09:09:03.402Z,25.63
2018-08-19T09:11:30.497Z,4.93
2018-08-19T09:13:57.673Z,2.90
2018-08-19T09:16:24.659Z,4.27
2018-08-19T09:18:51.841Z,8.87
2018-08-19T09:21:18.935Z,3.33
2018-08-19T09:23:46.009Z,2.70
2018-08-19T09:26:13.075Z,2.67
2018-08-19T09:28:40.140Z,2.90
2018-08-19T09:31:07.747Z,3.00
2018-08-19T09:33:34.803Z,2.50
2018-08-19T09:36:01.835Z,2.77
2018-08-19T09:38:29.034Z,2.70
2018-08-19T09:40:56.154Z,3.10
2018-08-19T09:43:23.238Z,2.83
2018-08-19T09:45:50.654Z,3.70
2018-08-19T09:48:17.993Z,3.37
2018-08-19T09:50:45.199Z,2.50
2018-08-19T09:53:12.337Z,2.50
2018-08-19T09:55:40.490Z,2.70
2018-08-19T09:58:13.461Z,3.17
2018-08-19T10:00:46.321Z,3.67
2018-08-19T10:03:19.022Z,2.10
2018-08-19T10:05:46.190Z,3.20
2018-08-19T10:08:13.354Z,2.73
2018-08-19T10:10:40.412Z,2.40
2018-08-19T10:13:07.571Z,2.37
2018-08-19T10:15:35.217Z,2.27
2018-08-19T10:18:02.362Z,2.37
2018-08-19T10:20:29.454Z,2.37
2018-08-19T10:22:57.014Z,1.90
2018-08-19T10:25:24.060Z,2.50
2018-08-19T10:27:52.428Z,2.67
2018-08-19T10:30:20.125Z,2.10
2018-08-19T10:32:49.266Z,2.30
2018-08-19T10:35:17.016Z,2.47
2018-08-19T10:37:44.143Z,2.33
2018-08-19T10:40:11.237Z,2.67
2018-08-19T10:42:38.334Z,2.70
2018-08-19T10:45:12.036Z,3.20
2018-08-19T10:47:39.095Z,2.70
2018-08-19T10:50:06.765Z,2.60
2018-08-19T10:52:36.736Z,2.07
2018-08-19T10:55:03.770Z,2.53
2018-08-19T10:57:30.834Z,2.90
2018-08-19T10:59:58.668Z,2.67
2018-08-19T11:02:25.733Z,2.90
2018-08-19T11:04:53.791Z,2.73
2018-08-19T11:07:20.860Z,2.70
2018-08-19T11:09:53.739Z,3.50
2018-08-19T11:12:21.229Z,2.93
2018-08-19T11:14:48.297Z,3.13
2018-08-19T11:17:15.316Z,2.60
2018-08-19T11:19:42.427Z,2.57
2018-08-19T11:22:09.777Z,2.57
2018-08-19T11:24:36.900Z,2.93
2018-08-19T11:27:05.332Z,2.23
2018-08-19T11:29:38.585Z,3.60
2018-08-19T11:32:05.704Z,14.40
2018-08-19T11:34:32.811Z,2.70
2018-08-19T11:36:59.839Z,4.10
2018-08-19T11:39:33.080Z,1.97
2018-08-19T11:42:00.100Z,4.20
2018-08-19T11:44:27.202Z,4.07
2018-08-19T11:46:54.311Z,3.10
2018-08-19T11:49:21.369Z,3.00
2018-08-19T11:51:51.117Z,2.80
2018-08-19T11:54:19.077Z,3.30
2018-08-19T11:57:11.434Z,2.47
2018-08-19T11:59:43.489Z,3.30
2018-08-19T12:02:19.236Z,2.83
2018-08-19T12:04:46.837Z,2.80
2018-08-19T12:07:13.965Z,2.70
2018-08-19T12:09:41.560Z,5.67
2018-08-19T12:12:08.752Z,2.80
2018-08-19T12:14:36.334Z,2.80
2018-08-19T12:17:06.269Z,2.67
2018-08-19T12:19:34.541Z,2.60
2018-08-19T12:22:02.732Z,2.30
2018-08-19T12:24:31.262Z,3.80
2018-08-19T12:27:02.568Z,3.20
2018-08-19T12:29:31.748Z,2.47
2018-08-19T12:32:10.642Z,1.70
2018-08-19T12:34:38.243Z,2.27
2018-08-19T12:37:06.140Z,2.80
2018-08-19T12:39:33.116Z,5.10
2018-08-19T12:42:00.284Z,4.17
2018-08-19T12:44:27.372Z,4.10
2018-08-19T12:47:02.628Z,9.10
2018-08-19T12:49:31.837Z,2.20
2018-08-19T12:51:58.896Z,2.70
2018-08-19T12:54:26.015Z,2.30
2018-08-19T12:56:53.740Z,2.30
2018-08-19T12:59:20.813Z,2.30
2018-08-19T13:01:47.930Z,3.10
2018-08-19T13:04:15.017Z,4.03
2018-08-19T13:06:52.614Z,2.20
2018-08-19T13:09:24.338Z,4.43
2018-08-19T13:11:51.385Z,2.10
2018-08-19T13:14:18.542Z,3.27
2018-08-19T13:16:45.874Z,2.47
2018-08-19T13:19:12.957Z,3.90
2018-08-19T13:21:39.983Z,2.50
2018-08-19T13:24:07.128Z,3.13
2018-08-19T13:26:34.226Z,2.30
2018-08-19T13:29:01.364Z,2.10
2018-08-19T13:31:33.115Z,2.20
2018-08-19T13:34:00.187Z,3.70
2018-08-19T13:36:27.250Z,2.50
2018-08-19T13:38:54.678Z,3.50
2018-08-19T13:41:21.771Z,3.00
2018-08-19T13:43:48.834Z,3.00
2018-08-19T13:46:15.960Z,3.67
2018-08-19T13:48:42.996Z,3.50
2018-08-19T13:51:10.101Z,2.70
2018-08-19T13:53:37.368Z,3.50
2018-08-19T13:56:04.959Z,2.70
2018-08-19T13:58:32.137Z,3.47
2018-08-19T14:00:59.285Z,2.97
2018-08-19T14:03:26.748Z,2.40
2018-08-19T14:05:53.840Z,2.53
2018-08-19T14:08:21.035Z,3.00
2018-08-19T14:10:48.492Z,2.73
2018-08-19T14:13:15.642Z,3.90
2018-08-19T14:15:42.825Z,2.70
2018-08-19T14:18:09.890Z,3.83
2018-08-19T14:20:36.993Z,3.80
2018-08-19T14:23:04.184Z,3.90
2018-08-19T14:25:31.260Z,3.00
2018-08-19T14:27:58.461Z,3.43
2018-08-19T14:30:25.568Z,3.40
2018-08-19T14:32:52.625Z,4.03
2018-08-19T14:35:19.878Z,3.77
2018-08-19T14:37:46.985Z,4.50
2018-08-19T14:40:15.042Z,4.20
2018-08-19T14:42:42.050Z,3.70
2018-08-19T14:45:09.144Z,3.63
2018-08-19T14:47:36.350Z,3.43
2018-08-19T14:50:19.409Z,3.50
2018-08-19T14:52:46.499Z,3.90
2018-08-19T14:55:13.748Z,4.90
2018-08-19T14:57:40.860Z,4.13
2018-08-19T15:00:08.922Z,3.77
2018-08-19T15:02:36.362Z,4.07
2018-08-19T15:05:03.756Z,4.27
2018-08-19T15:07:30.855Z,4.80
2018-08-19T15:09:58.050Z,4.90
2018-08-19T15:12:25.956Z,4.60
2018-08-19T15:14:57.670Z,6.10
2018-08-19T15:17:24.875Z,8.20
2018-08-19T15:19:52.737Z,4.43
2018-08-19T15:22:20.193Z,4.10
2018-08-19T15:24:47.523Z,4.20
2018-08-19T15:27:14.734Z,4.20
2018-08-19T15:29:43.489Z,4.30
2018-08-19T15:32:11.301Z,4.00
2018-08-19T15:34:38.217Z,4.60
2018-08-19T15:37:05.521Z,5.07
2018-08-19T15:39:32.708Z,6.80
2018-08-19T15:41:59.923Z,4.77
2018-08-19T15:44:26.999Z,4.57
2018-08-19T15:46:54.043Z,4.73
2018-08-19T15:49:21.885Z,6.90
2018-08-19T15:51:49.024Z,7.40
2018-08-19T15:54:16.219Z,4.63
2018-08-19T15:56:43.265Z,6.50
2018-08-19T15:59:10.544Z,6.03
2018-08-19T16:01:37.818Z,5.63
2018-08-19T16:04:11.359Z,6.93
2018-08-19T16:06:38.420Z,6.70
2018-08-19T16:09:06.581Z,5.60
2018-08-19T16:11:33.726Z,6.13
2018-08-19T16:14:03.170Z,6.13
2018-08-19T16:16:30.309Z,4.60
2018-08-19T16:18:57.425Z,7.40
2018-08-19T16:21:24.956Z,5.00
2018-08-19T16:23:52.047Z,6.73
2018-08-19T16:26:19.148Z,5.10
2018-08-19T16:28:46.253Z,5.33
2018-08-19T16:31:13.317Z,6.00
2018-08-19T16:33:40.380Z,5.40
2018-08-19T16:36:07.421Z,6.63
2018-08-19T16:38:34.569Z,6.03
2018-08-19T16:41:01.677Z,5.77
2018-08-19T16:43:28.732Z,5.80
2018-08-19T16:45:55.771Z,5.33
2018-08-19T16:48:22.841Z,6.23
2018-08-19T16:50:50.385Z,5.87
2018-08-19T16:53:17.484Z,4.60
2018-08-19T16:55:44.556Z,7.90
2018-08-19T16:58:11.652Z,5.80
2018-08-19T17:00:38.897Z,6.73
2018-08-19T17:03:13.510Z,5.60
2018-08-19T17:05:40.605Z,5.20
2018-08-19T17:08:07.838Z,5.87
2018-08-19T17:10:35.309Z,6.37
2018-08-19T17:13:02.509Z,7.30
2018-08-19T17:15:29.699Z,7.53
2018-08-19T17:17:57.001Z,5.93
2018-08-19T17:20:24.207Z,5.80
2018-08-19T17:22:51.318Z,7.00
2018-08-19T17:25:18.425Z,6.93
2018-08-19T17:27:45.532Z,8.90
2018-08-19T17:30:17.229Z,5.43
2018-08-19T17:32:44.557Z,5.33
2018-08-19T17:35:11.513Z,9.10
2018-08-19T17:37:38.593Z,8.33
2018-08-19T17:40:05.685Z,6.10
2018-08-19T17:42:32.806Z,6.33
2018-08-19T17:44:59.893Z,7.43
2018-08-19T17:47:27.259Z,7.20
2018-08-19T17:49:54.397Z,6.57
2018-08-19T17:52:21.547Z,7.80
2018-08-19T17:54:48.647Z,7.70
2018-08-19T17:57:15.825Z,8.40
2018-08-19T17:59:43.000Z,6.87
2018-08-19T18:02:10.086Z,7.50
2018-08-19T18:04:42.973Z,7.37
2018-08-19T18:07:11.702Z,7.83
2018-08-19T18:09:43.518Z,7.17
2018-08-19T18:12:10.622Z,8.43
2018-08-19T18:14:38.025Z,6.53
2018-08-19T18:17:05.096Z,8.10
2018-08-19T18:19:32.975Z,7.10
2018-08-19T18:22:00.209Z,6.37
2018-08-19T18:24:27.287Z,6.83
2018-08-19T18:26:54.397Z,7.60
2018-08-19T18:29:21.516Z,8.10
2018-08-19T18:31:48.867Z,7.80
2018-08-19T18:34:16.043Z,6.97
2018-08-19T18:36:43.163Z,8.20
2018-08-19T18:39:10.334Z,7.50
2018-08-19T18:41:41.017Z,8.60
2018-08-19T18:44:18.104Z,7.63
2018-08-19T18:46:45.885Z,10.20
2018-08-19T18:49:13.414Z,8.13
2018-08-19T18:51:41.521Z,8.50
2018-08-19T18:54:10.748Z,8.43
2018-08-19T18:56:37.854Z,9.33
2018-08-19T18:59:05.154Z,8.13
2018-08-19T19:01:32.241Z,8.50
2018-08-19T19:03:59.411Z,9.03
2018-08-19T19:06:26.801Z,9.10
2018-08-19T19:08:53.942Z,9.40
2018-08-19T19:11:21.929Z,9.53
2018-08-19T19:13:49.039Z,9.60
2018-08-19T19:16:17.654Z,9.30
2018-08-19T19:18:44.786Z,10.53
2018-08-19T19:21:11.843Z,11.23
2018-08-19T19:23:40.851Z,12.37
2018-08-19T19:26:08.466Z,12.23
2018-08-19T19:28:35.902Z,12.67
2018-08-19T19:31:08.875Z,12.77
2018-08-19T19:33:36.344Z,13.73
2018-08-19T19:36:09.170Z,14.37
2018-08-19T19:38:38.825Z,14.30
2018-08-19T19:41:08.757Z,13.87
2018-08-19T19:43:35.808Z,16.33
2018-08-19T19:46:02.943Z,15.57
2018-08-19T19:48:30.081Z,15.47
2018-08-19T19:50:57.166Z,15.50
2018-08-19T19:53:24.769Z,14.47
2018-08-19T19:55:52.343Z,16.50
2018-08-19T19:58:19.391Z,18.33
2018-08-19T20:00:53.097Z,15.37
2018-08-19T20:03:20.852Z,14.10
2018-08-19T20:05:47.957Z,14.07
2018-08-19T20:08:15.173Z,14.90
2018-08-19T20:10:42.265Z,16.13
2018-08-19T20:13:09.369Z,18.60
2018-08-19T20:15:36.557Z,20.23
2018-08-19T20:18:03.619Z,19.63
2018-08-19T20:20:30.593Z,20.60
2018-08-19T20:24:01.135Z,12.93
2018-08-19T20:26:28.364Z,16.13
2018-08-19T20:28:56.815Z,17.07
2018-08-19T20:31:24.214Z,16.13
2018-08-19T20:33:51.197Z,14.27
2018-08-19T20:36:18.372Z,18.33
2018-08-19T20:38:45.447Z,13.57
2018-08-19T20:41:12.735Z,13.00
2018-08-19T20:43:39.714Z,12.80
2018-08-19T20:46:07.058Z,20.73
2018-08-19T20:48:34.459Z,15.53
2018-08-19T20:51:01.481Z,22.37
2018-08-19T20:53:28.736Z,15.23
2018-08-19T20:55:55.750Z,12.17
2018-08-19T20:58:22.750Z,10.87
2018-08-19T21:00:49.689Z,12.20
2018-08-19T21:03:16.707Z,11.47
2018-08-19T21:05:43.676Z,11.90
2018-08-19T21:08:13.382Z,13.03
2018-08-19T21:10:41.520Z,11.70
2018-08-19T21:13:09.886Z,11.37
2018-08-19T21:15:39.161Z,9.80
2018-08-19T21:18:06.796Z,9.27
2018-08-19T21:20:34.100Z,12.10
2018-08-19T21:23:01.529Z,11.13
2018-08-19T21:25:29.000Z,16.03
2018-08-19T21:27:56.030Z,11.40
2018-08-19T21:30:23.219Z,11.17
2018-08-19T21:32:50.148Z,16.23
2018-08-19T21:35:17.272Z,14.93
2018-08-19T21:37:45.518Z,17.70
2018-08-19T21:40:13.624Z,9.30
2018-08-19T21:42:48.546Z,10.23
2018-08-19T21:45:15.582Z,10.07
2018-08-19T21:47:42.550Z,9.73
2018-08-19T21:50:09.610Z,10.33
2018-08-19T21:52:41.951Z,10.00
2018-08-19T21:55:08.978Z,10.27
2018-08-19T21:57:35.934Z,10.10
2018-08-19T22:00:02.909Z,10.10
2018-08-19T22:02:35.716Z,9.53
2018-08-19T22:05:03.317Z,10.10
2018-08-19T22:07:30.305Z,10.20
2018-08-19T22:09:57.282Z,9.60
2018-08-19T22:12:24.265Z,10.40
2018-08-19T22:14:51.317Z,10.30
2018-08-19T22:17:18.315Z,11.20
2018-08-19T22:19:45.277Z,10.80
2018-08-19T22:22:12.291Z,10.50
2018-08-19T22:24:39.354Z,10.00
2018-08-19T22:27:12.113Z,11.00
2018-08-19T22:29:39.184Z,10.70
2018-08-19T22:32:06.216Z,11.77
2018-08-19T22:34:33.703Z,11.90
2018-08-19T22:37:00.734Z,13.30
2018-08-19T22:39:27.696Z,14.83
2018-08-19T22:41:54.717Z,14.97
2018-08-19T22:44:21.660Z,17.17
2018-08-19T22:46:48.636Z,21.23
2018-08-19T22:49:15.621Z,13.70
2018-08-19T22:51:42.661Z,12.90
2018-08-19T22:54:09.622Z,15.10
2018-08-19T22:56:36.592Z,11.03
2018-08-19T22:59:03.615Z,11.10
2018-08-19T23:01:36.434Z,13.83
2018-08-19T23:04:03.682Z,13.90
2018-08-19T23:06:31.313Z,15.33
2018-08-19T23:08:58.364Z,15.40
2018-08-19T23:11:45.379Z,15.87
2018-08-19T23:14:24.117Z,16.90
2018-08-19T23:16:51.128Z,18.07
2018-08-19T23:19:18.127Z,19.30
2018-08-19T23:21:45.106Z,18.37
2018-08-19T23:24:12.084Z,19.77
2018-08-19T23:26:39.042Z,16.47
2018-08-19T23:29:05.992Z,16.67
2018-08-19T23:31:33.014Z,18.67
2018-08-19T23:33:59.996Z,18.63
2018-08-19T23:36:27.038Z,19.33
2018-08-19T23:38:54.324Z,20.00
2018-08-19T23:41:21.315Z,18.63
2018-08-19T23:43:48.325Z,18.60
2018-08-19T23:46:15.388Z,18.00
2018-08-19T23:48:42.341Z,17.10
2018-08-19T23:51:10.866Z,18.03
2018-08-19T23:53:37.931Z,30.20
2018-08-19T23:56:04.933Z,23.80
2018-08-19T23:58:31.977Z,17.50
